Dededo, Guam
Current Conditions -  °F | °C
As of 7:54 PM on Thursday 23 Oct 2014 (Local Time) from PGUM Reporting Station
Overcast Overcast  
Wind Chill: 79°   Ceiling: 5000
Heat Index: 83°   Visibility: 10mi
Dew Point: 77°   Wind: 5mph
Humidity: 94%   Direction: 30°NNE
Pressure: 29.85"   Gusts: NA
Location:  13.51°N, 144.84°E
Report Text: PGUM 230954Z 03004KT 10SM FEW024 OVC050 26/25 A2985 RMK AO2 RAB32E41 SLP102 P0000 T02610250
Loading
Personal Weather Stations






























Interactive Weather Map
Tropical Storm Tracking
New forecast layout! Learn more

10-Day Weather Forecast

Advertisements
Track Severe Weather on mobile